Arctic Bay — 9HTD8 — position and weather

sailwx.info

Track history (hours):
 
Tides and Currents Weather Stations Pressure Air Temp Water Temp Dewpoint Dewpoint Depression Visibility Wind Speed Wind Dir Waves Ship Positions

Arctic Bay

Last reported at 2014-Aug-13 09:32 UTC. Time now 2014-Aug-22 05:55 UTC.
Position N 27°03' W 079°45'.
Warning: this ship's position is 8 days out of date.

Length 182 m; draft 11.5 m.

Type: Ship. MMSI: 256396000.

Date/timePositionNaut miles runAvg speedWind from/ knotsBaromVisibWave heightAir tempDewpointWater temp
2014-Aug-13 09:32N 27°03' W 079°45'1313.4
2014-Aug-13 08:33N 26°50' W 079°45'  
2014-Aug-10 00:08N 29°21' W 094°46'7 9.3
2014-Aug-09 23:21N 29°27' W 094°51'810.4
2014-Aug-09 22:33N 29°34' W 094°55'9 9.4
2014-Aug-09 21:33N 29°42' W 095°01'6 5.6
2014-Aug-09 20:33N 29°44' W 095°07'5 4.5
2014-Aug-09 19:30N 29°45' W 095°12'0 0.0
2014-Aug-09 18:33N 29°45' W 095°12'0 0.0
2014-Aug-09 17:33N 29°45' W 095°12'0 0.0
2014-Aug-09 16:27N 29°45' W 095°12'0 0.0
2014-Aug-09 15:33N 29°45' W 095°12'0 0.0
2014-Aug-09 14:33N 29°45' W 095°12'0 0.0
2014-Aug-09 13:33N 29°45' W 095°12'0 0.0
2014-Aug-09 12:33N 29°45' W 095°12'0 0.0
2014-Aug-09 11:30N 29°45' W 095°12'0 0.0
2014-Aug-09 10:33N 29°45' W 095°12'0 0.0
2014-Aug-09 09:30N 29°45' W 095°12'0 0.0
2014-Aug-09 08:27N 29°45' W 095°12'0 0.0
2014-Aug-09 07:30N 29°45' W 095°12'0 0.0
2014-Aug-09 06:33N 29°45' W 095°12'0 0.0
2014-Aug-09 05:30N 29°45' W 095°12'0 0.0
2014-Aug-09 04:33N 29°45' W 095°12'0 0.0
2014-Aug-09 03:24N 29°45' W 095°12'0 0.0
2014-Aug-09 02:33N 29°45' W 095°12'0 0.0
2014-Aug-09 01:30N 29°45' W 095°12'0 0.0
2014-Aug-09 00:33N 29°45' W 095°12'0 0.0
2014-Aug-08 23:27N 29°45' W 095°12'0 0.0
2014-Aug-08 22:30N 29°45' W 095°12'0 0.0
2014-Aug-08 21:33N 29°45' W 095°12'0 0.0
2014-Aug-08 20:33N 29°45' W 095°12'0 0.0
2014-Aug-08 19:33N 29°45' W 095°12'0 0.0
2014-Aug-08 18:33N 29°45' W 095°12'0 0.0
2014-Aug-08 17:33N 29°45' W 095°12'0 0.0
2014-Aug-08 16:30N 29°45' W 095°12'0 0.0
2014-Aug-08 15:33N 29°45' W 095°12'0 0.0
2014-Aug-08 14:30N 29°45' W 095°12'0 0.0
2014-Aug-08 13:33N 29°45' W 095°12'0 0.0
2014-Aug-08 12:33N 29°45' W 095°12'0 0.0
2014-Aug-08 11:33N 29°45' W 095°12'0 0.0
2014-Aug-08 10:33N 29°45' W 095°12'0 0.0
2014-Aug-08 09:33N 29°45' W 095°12'0 0.0
2014-Aug-08 08:27N 29°45' W 095°12'0 0.0
2014-Aug-08 07:33N 29°45' W 095°12'0 0.0
2014-Aug-08 06:33N 29°45' W 095°12'0 0.0
2014-Aug-08 05:33N 29°45' W 095°12'0 0.0
2014-Aug-08 04:33N 29°45' W 095°12'0 0.0
2014-Aug-08 03:27N 29°45' W 095°12'0 0.0
2014-Aug-08 02:33N 29°45' W 095°12'0 0.0
2014-Aug-08 01:33N 29°45' W 095°12'0 0.0
2014-Aug-08 00:33N 29°45' W 095°12'0 0.0
2014-Aug-07 23:33N 29°45' W 095°12'0 0.0
2014-Aug-07 22:21N 29°45' W 095°12'0 0.0
2014-Aug-07 20:21N 29°45' W 095°12'0 0.0
2014-Aug-07 19:33N 29°45' W 095°12'0 0.0
2014-Aug-07 18:33N 29°45' W 095°12'0 0.0
2014-Aug-07 17:21N 29°45' W 095°12'0 0.0
2014-Aug-07 16:33N 29°45' W 095°12'3 2.8
2014-Aug-07 15:34N 29°43' W 095°15'2 2.1
2014-Aug-07 14:32N 29°45' W 095°17'0 0.0
2014-Aug-07 13:32N 29°45' W 095°17'63966398.1
2014-Aug-07 12:32S 76°52' W 095°17'63966394.5
2014-Aug-07 11:32N 29°45' W 095°17'0 0.0
2014-Aug-07 10:32N 29°45' W 095°17'0 0.0
2014-Aug-07 09:32N 29°45' W 095°17'0 0.0
2014-Aug-07 08:29N 29°45' W 095°17'0 0.0
2014-Aug-07 07:32N 29°45' W 095°17'0 0.0
2014-Aug-07 06:32N 29°45' W 095°17'0 0.0
2014-Aug-07 05:32N 29°45' W 095°17'0 0.0
2014-Aug-07 04:32N 29°45' W 095°17'0 0.0
2014-Aug-07 03:32N 29°45' W 095°17'0 0.0
2014-Aug-07 02:32N 29°45' W 095°17'0 0.0
2014-Aug-07 01:32N 29°45' W 095°17'0 0.0
2014-Aug-07 00:32N 29°45' W 095°17'0 0.0
2014-Aug-06 23:29N 29°45' W 095°17'0 0.0
2014-Aug-06 22:32N 29°45' W 095°17'0 0.0
2014-Aug-06 21:32N 29°45' W 095°17'0 0.0
2014-Aug-06 20:32N 29°45' W 095°17'0 0.0
2014-Aug-06 19:32N 29°45' W 095°17'0 0.0
2014-Aug-06 18:32N 29°45' W 095°17'0 0.0
2014-Aug-06 17:32N 29°45' W 095°17'0 0.0
2014-Aug-06 16:32N 29°45' W 095°17'0 0.0
2014-Aug-06 15:32N 29°45' W 095°17'0 0.0
2014-Aug-06 14:32N 29°45' W 095°17'0 0.0
2014-Aug-06 13:32N 29°45' W 095°17'0 0.0
2014-Aug-06 12:32N 29°45' W 095°17'0 0.0
2014-Aug-06 11:32N 29°45' W 095°17'0 0.0
2014-Aug-06 10:32N 29°45' W 095°17'0 0.0
2014-Aug-06 09:29N 29°45' W 095°17'0 0.0
2014-Aug-06 08:32N 29°45' W 095°17'0 0.0
2014-Aug-06 07:32N 29°45' W 095°17'0 0.0
2014-Aug-06 06:32N 29°45' W 095°17'0 0.0
2014-Aug-06 05:32N 29°45' W 095°17'0 0.0
2014-Aug-06 04:32N 29°45' W 095°17'0 0.0
2014-Aug-06 03:32N 29°45' W 095°17'0 0.0
2014-Aug-06 02:32N 29°45' W 095°17'0 0.0
2014-Aug-06 01:32N 29°45' W 095°17'0 0.0
2014-Aug-06 00:32N 29°45' W 095°17'0 0.0
2014-Aug-05 23:32N 29°45' W 095°17'0 0.0
2014-Aug-05 22:32N 29°45' W 095°17'0 0.0
2014-Aug-05 21:32N 29°45' W 095°17'0 0.0
2014-Aug-05 20:32N 29°45' W 095°17'0 0.0
2014-Aug-05 19:32N 29°45' W 095°17'0 0.0
2014-Aug-05 18:32N 29°45' W 095°17'0 0.0
2014-Aug-05 17:32N 29°45' W 095°17'0 0.0
2014-Aug-05 16:32N 29°45' W 095°17'0 0.0
2014-Aug-05 15:32N 29°45' W 095°17'0 0.0
2014-Aug-05 14:32N 29°45' W 095°17'0 0.0
2014-Aug-05 13:32N 29°45' W 095°17'0 0.0
2014-Aug-05 12:32N 29°45' W 095°17'0 0.0
2014-Aug-05 11:32N 29°45' W 095°17'0 0.0
2014-Aug-05 10:32N 29°45' W 095°17'0 0.0
2014-Aug-05 09:32N 29°45' W 095°17'0 0.0
2014-Aug-05 08:29N 29°45' W 095°17'0 0.0
2014-Aug-05 07:29N 29°45' W 095°17'0 0.0
2014-Aug-05 06:32N 29°45' W 095°17'0 0.0
2014-Aug-05 05:29N 29°45' W 095°17'0 0.0
2014-Aug-05 04:32N 29°45' W 095°17'0 0.0
2014-Aug-05 03:32N 29°45' W 095°17'0 0.0
2014-Aug-05 02:32N 29°45' W 095°17'0 0.0
2014-Aug-05 01:32N 29°45' W 095°17'0 0.0
2014-Aug-05 00:32N 29°45' W 095°17'0 0.0
2014-Aug-04 23:32N 29°45' W 095°17'0 0.0
2014-Aug-04 22:32N 29°45' W 095°17'0 0.0
2014-Aug-04 21:32N 29°45' W 095°17'0 0.0
2014-Aug-04 20:32N 29°45' W 095°17'0 0.0
2014-Aug-04 19:32N 29°45' W 095°17'0 0.0
2014-Aug-04 18:32N 29°45' W 095°17'0 0.0
2014-Aug-04 17:32N 29°45' W 095°17'0 0.0
2014-Aug-04 16:32N 29°45' W 095°17'0 0.0
2014-Aug-04 15:32N 29°45' W 095°17'0 0.0
2014-Aug-04 14:32N 29°45' W 095°17'0 0.0
2014-Aug-04 13:32N 29°45' W 095°17'0 0.0
2014-Aug-03 11:32N 29°45' W 095°17'0 0.0
2014-Aug-03 10:32N 29°45' W 095°17'0 0.0
2014-Aug-03 09:32N 29°45' W 095°17'  
Track history (hours):
 
Tides and Currents Weather Stations Pressure Air Temp Water Temp Dewpoint Dewpoint Depression Visibility Wind Speed Wind Dir Waves Ship Positions

Arctic Bay

Last reported at 2014-Aug-13 09:32 UTC. Time now 2014-Aug-22 05:55 UTC.
Position N 27°03' W 079°45'.
Warning: this ship's position is 8 days out of date.

Length 182 m; draft 11.5 m.

Type: Ship. MMSI: 256396000.

Date/timePositionNaut miles runAvg speedWind from/ knotsBaromVisibWave heightAir tempDewpointWater temp
2014-Aug-13 09:32N 27°03' W 079°45'1313.4
2014-Aug-13 08:33N 26°50' W 079°45'  
2014-Aug-10 00:08N 29°21' W 094°46'7 9.3
2014-Aug-09 23:21N 29°27' W 094°51'810.4
2014-Aug-09 22:33N 29°34' W 094°55'9 9.4
2014-Aug-09 21:33N 29°42' W 095°01'6 5.6
2014-Aug-09 20:33N 29°44' W 095°07'5 4.5
2014-Aug-09 19:30N 29°45' W 095°12'0 0.0
2014-Aug-09 18:33N 29°45' W 095°12'0 0.0
2014-Aug-09 17:33N 29°45' W 095°12'0 0.0
2014-Aug-09 16:27N 29°45' W 095°12'0 0.0
2014-Aug-09 15:33N 29°45' W 095°12'0 0.0
2014-Aug-09 14:33N 29°45' W 095°12'0 0.0
2014-Aug-09 13:33N 29°45' W 095°12'0 0.0
2014-Aug-09 12:33N 29°45' W 095°12'0 0.0
2014-Aug-09 11:30N 29°45' W 095°12'0 0.0
2014-Aug-09 10:33N 29°45' W 095°12'0 0.0
2014-Aug-09 09:30N 29°45' W 095°12'0 0.0
2014-Aug-09 08:27N 29°45' W 095°12'0 0.0
2014-Aug-09 07:30N 29°45' W 095°12'0 0.0
2014-Aug-09 06:33N 29°45' W 095°12'0 0.0
2014-Aug-09 05:30N 29°45' W 095°12'0 0.0
2014-Aug-09 04:33N 29°45' W 095°12'0 0.0
2014-Aug-09 03:24N 29°45' W 095°12'0 0.0
2014-Aug-09 02:33N 29°45' W 095°12'0 0.0
2014-Aug-09 01:30N 29°45' W 095°12'0 0.0
2014-Aug-09 00:33N 29°45' W 095°12'0 0.0
2014-Aug-08 23:27N 29°45' W 095°12'0 0.0
2014-Aug-08 22:30N 29°45' W 095°12'0 0.0
2014-Aug-08 21:33N 29°45' W 095°12'0 0.0
2014-Aug-08 20:33N 29°45' W 095°12'0 0.0
2014-Aug-08 19:33N 29°45' W 095°12'0 0.0
2014-Aug-08 18:33N 29°45' W 095°12'0 0.0
2014-Aug-08 17:33N 29°45' W 095°12'0 0.0
2014-Aug-08 16:30N 29°45' W 095°12'0 0.0
2014-Aug-08 15:33N 29°45' W 095°12'0 0.0
2014-Aug-08 14:30N 29°45' W 095°12'0 0.0
2014-Aug-08 13:33N 29°45' W 095°12'0 0.0
2014-Aug-08 12:33N 29°45' W 095°12'0 0.0
2014-Aug-08 11:33N 29°45' W 095°12'0 0.0
2014-Aug-08 10:33N 29°45' W 095°12'0 0.0
2014-Aug-08 09:33N 29°45' W 095°12'0 0.0
2014-Aug-08 08:27N 29°45' W 095°12'0 0.0
2014-Aug-08 07:33N 29°45' W 095°12'0 0.0
2014-Aug-08 06:33N 29°45' W 095°12'0 0.0
2014-Aug-08 05:33N 29°45' W 095°12'0 0.0
2014-Aug-08 04:33N 29°45' W 095°12'0 0.0
2014-Aug-08 03:27N 29°45' W 095°12'0 0.0
2014-Aug-08 02:33N 29°45' W 095°12'0 0.0
2014-Aug-08 01:33N 29°45' W 095°12'0 0.0
2014-Aug-08 00:33N 29°45' W 095°12'0 0.0
2014-Aug-07 23:33N 29°45' W 095°12'0 0.0
2014-Aug-07 22:21N 29°45' W 095°12'0 0.0
2014-Aug-07 20:21N 29°45' W 095°12'0 0.0
2014-Aug-07 19:33N 29°45' W 095°12'0 0.0
2014-Aug-07 18:33N 29°45' W 095°12'0 0.0
2014-Aug-07 17:21N 29°45' W 095°12'0 0.0
2014-Aug-07 16:33N 29°45' W 095°12'3 2.8
2014-Aug-07 15:34N 29°43' W 095°15'2 2.1
2014-Aug-07 14:32N 29°45' W 095°17'0 0.0
2014-Aug-07 13:32N 29°45' W 095°17'63966398.1
2014-Aug-07 12:32S 76°52' W 095°17'63966394.5
2014-Aug-07 11:32N 29°45' W 095°17'0 0.0
2014-Aug-07 10:32N 29°45' W 095°17'0 0.0
2014-Aug-07 09:32N 29°45' W 095°17'0 0.0
2014-Aug-07 08:29N 29°45' W 095°17'0 0.0
2014-Aug-07 07:32N 29°45' W 095°17'0 0.0
2014-Aug-07 06:32N 29°45' W 095°17'0 0.0
2014-Aug-07 05:32N 29°45' W 095°17'0 0.0
2014-Aug-07 04:32N 29°45' W 095°17'0 0.0
2014-Aug-07 03:32N 29°45' W 095°17'0 0.0
2014-Aug-07 02:32N 29°45' W 095°17'0 0.0
2014-Aug-07 01:32N 29°45' W 095°17'0 0.0
2014-Aug-07 00:32N 29°45' W 095°17'0 0.0
2014-Aug-06 23:29N 29°45' W 095°17'0 0.0
2014-Aug-06 22:32N 29°45' W 095°17'0 0.0
2014-Aug-06 21:32N 29°45' W 095°17'0 0.0
2014-Aug-06 20:32N 29°45' W 095°17'0 0.0
2014-Aug-06 19:32N 29°45' W 095°17'0 0.0
2014-Aug-06 18:32N 29°45' W 095°17'0 0.0
2014-Aug-06 17:32N 29°45' W 095°17'0 0.0
2014-Aug-06 16:32N 29°45' W 095°17'0 0.0
2014-Aug-06 15:32N 29°45' W 095°17'0 0.0
2014-Aug-06 14:32N 29°45' W 095°17'0 0.0
2014-Aug-06 13:32N 29°45' W 095°17'0 0.0
2014-Aug-06 12:32N 29°45' W 095°17'0 0.0
2014-Aug-06 11:32N 29°45' W 095°17'0 0.0
2014-Aug-06 10:32N 29°45' W 095°17'0 0.0
2014-Aug-06 09:29N 29°45' W 095°17'0 0.0
2014-Aug-06 08:32N 29°45' W 095°17'0 0.0
2014-Aug-06 07:32N 29°45' W 095°17'0 0.0
2014-Aug-06 06:32N 29°45' W 095°17'0 0.0
2014-Aug-06 05:32N 29°45' W 095°17'0 0.0
2014-Aug-06 04:32N 29°45' W 095°17'0 0.0
2014-Aug-06 03:32N 29°45' W 095°17'0 0.0
2014-Aug-06 02:32N 29°45' W 095°17'0 0.0
2014-Aug-06 01:32N 29°45' W 095°17'0 0.0
2014-Aug-06 00:32N 29°45' W 095°17'0 0.0
2014-Aug-05 23:32N 29°45' W 095°17'0 0.0
2014-Aug-05 22:32N 29°45' W 095°17'0 0.0
2014-Aug-05 21:32N 29°45' W 095°17'0 0.0
2014-Aug-05 20:32N 29°45' W 095°17'0 0.0
2014-Aug-05 19:32N 29°45' W 095°17'0 0.0
2014-Aug-05 18:32N 29°45' W 095°17'0 0.0
2014-Aug-05 17:32N 29°45' W 095°17'0 0.0
2014-Aug-05 16:32N 29°45' W 095°17'0 0.0
2014-Aug-05 15:32N 29°45' W 095°17'0 0.0
2014-Aug-05 14:32N 29°45' W 095°17'0 0.0
2014-Aug-05 13:32N 29°45' W 095°17'0 0.0
2014-Aug-05 12:32N 29°45' W 095°17'0 0.0
2014-Aug-05 11:32N 29°45' W 095°17'0 0.0
2014-Aug-05 10:32N 29°45' W 095°17'0 0.0
2014-Aug-05 09:32N 29°45' W 095°17'0 0.0
2014-Aug-05 08:29N 29°45' W 095°17'0 0.0
2014-Aug-05 07:29N 29°45' W 095°17'0 0.0
2014-Aug-05 06:32N 29°45' W 095°17'0 0.0
2014-Aug-05 05:29N 29°45' W 095°17'0 0.0
2014-Aug-05 04:32N 29°45' W 095°17'0 0.0
2014-Aug-05 03:32N 29°45' W 095°17'0 0.0
2014-Aug-05 02:32N 29°45' W 095°17'0 0.0
2014-Aug-05 01:32N 29°45' W 095°17'0 0.0
2014-Aug-05 00:32N 29°45' W 095°17'0 0.0
2014-Aug-04 23:32N 29°45' W 095°17'0 0.0
2014-Aug-04 22:32N 29°45' W 095°17'0 0.0
2014-Aug-04 21:32N 29°45' W 095°17'0 0.0
2014-Aug-04 20:32N 29°45' W 095°17'0 0.0
2014-Aug-04 19:32N 29°45' W 095°17'0 0.0
2014-Aug-04 18:32N 29°45' W 095°17'0 0.0
2014-Aug-04 17:32N 29°45' W 095°17'0 0.0
2014-Aug-04 16:32N 29°45' W 095°17'0 0.0
2014-Aug-04 15:32N 29°45' W 095°17'0 0.0
2014-Aug-04 14:32N 29°45' W 095°17'0 0.0
2014-Aug-04 13:32N 29°45' W 095°17'0 0.0
2014-Aug-03 11:32N 29°45' W 095°17'0 0.0
2014-Aug-03 10:32N 29°45' W 095°17'0 0.0
2014-Aug-03 09:32N 29°45' W 095°17'  

Dump ship's entire track history